VSV220 UAAA-UACC
Flight info
| Callsign | VSV220 |
|---|---|
| Flight time | N/A |
| Altitude | 38000 |
| Route | K0828F380 ETEDA1B ETEDA W333 BANOS DCT |
| Aircraft | B738/M-SDE2E3FGHIRWXY/LB1 |
Departure
| Time | 2026-05-06 12:39 |
|---|---|
| Airport | Almaty International Airport (UAAA) |
Arrival
| Time | N/A |
|---|---|
| Airport | Nursultan Nazarbayev International Airport (UACC) |
| Time | Latitude | Longitude | Altitude | Speed | Heading |
|---|---|---|---|---|---|
| 2026-05-06 12:39 | 43.45809 | 77.18356 | 8982 ft | 291 kts | 354° |
| 2026-05-06 12:39 | 43.47609 | 77.17715 | 9031 ft | 290 kts | 336° |
| 2026-05-06 12:39 | 43.49255 | 77.16308 | 9057 ft | 290 kts | 322° |
| 2026-05-06 12:39 | 43.50737 | 77.14544 | 9023 ft | 291 kts | 318° |
| 2026-05-06 12:40 | 43.52200 | 77.12677 | 9081 ft | 302 kts | 313° |
| 2026-05-06 12:40 | 43.53388 | 77.10541 | 10095 ft | 301 kts | 300° |
| 2026-05-06 12:40 | 43.54198 | 77.08149 | 10861 ft | 308 kts | 285° |
| 2026-05-06 12:40 | 43.54511 | 77.05440 | 11414 ft | 323 kts | 274° |
| 2026-05-06 12:41 | 43.54608 | 77.02582 | 11971 ft | 339 kts | 271° |
| 2026-05-06 12:41 | 43.54657 | 76.99603 | 12761 ft | 345 kts | 270° |
| 2026-05-06 12:41 | 43.54847 | 76.96646 | 13621 ft | 350 kts | 280° |
| 2026-05-06 12:41 | 43.55639 | 76.93849 | 14519 ft | 354 kts | 300° |
| 2026-05-06 12:42 | 43.57081 | 76.91422 | 15444 ft | 357 kts | 312° |
| 2026-05-06 12:42 | 43.58750 | 76.89112 | 16301 ft | 361 kts | 314° |
| 2026-05-06 12:42 | 43.60538 | 76.86700 | 17210 ft | 364 kts | 314° |
| 2026-05-06 12:42 | 43.62317 | 76.84274 | 18106 ft | 367 kts | 313° |
| 2026-05-06 12:43 | 43.63999 | 76.81943 | 18870 ft | 371 kts | 313° |
| 2026-05-06 12:43 | 43.65685 | 76.79572 | 19647 ft | 375 kts | 313° |
| 2026-05-06 12:43 | 43.67493 | 76.77254 | 20404 ft | 380 kts | 320° |
| 2026-05-06 12:43 | 43.69637 | 76.75338 | 21211 ft | 385 kts | 330° |
| 2026-05-06 12:44 | 43.72071 | 76.73968 | 21932 ft | 392 kts | 341° |
| 2026-05-06 12:44 | 43.74549 | 76.73166 | 22604 ft | 397 kts | 347° |
| 2026-05-06 12:44 | 43.77169 | 76.72546 | 23290 ft | 401 kts | 348° |
| 2026-05-06 12:44 | 43.79767 | 76.71944 | 23924 ft | 405 kts | 348° |
| 2026-05-06 12:45 | 43.82422 | 76.71275 | 24584 ft | 408 kts | 347° |
| 2026-05-06 12:45 | 43.85058 | 76.70542 | 25176 ft | 412 kts | 346° |
| 2026-05-06 12:45 | 43.90430 | 76.68883 | 26365 ft | 418 kts | 345° |
| 2026-05-06 12:46 | 43.93052 | 76.68015 | 26895 ft | 422 kts | 345° |
| 2026-05-06 12:46 | 43.95589 | 76.67155 | 27359 ft | 425 kts | 344° |
| 2026-05-06 12:46 | 43.98301 | 76.66218 | 27815 ft | 428 kts | 344° |
| 2026-05-06 12:46 | 44.01009 | 76.65272 | 28281 ft | 431 kts | 344° |
| 2026-05-06 12:47 | 44.03679 | 76.64333 | 28719 ft | 434 kts | 344° |
| 2026-05-06 12:47 | 44.06390 | 76.63374 | 29145 ft | 437 kts | 344° |
| 2026-05-06 12:47 | 44.09138 | 76.62400 | 29586 ft | 439 kts | 344° |
| 2026-05-06 12:47 | 44.11930 | 76.61407 | 30006 ft | 442 kts | 344° |
| 2026-05-06 12:48 | 44.14722 | 76.60414 | 30438 ft | 445 kts | 344° |
| 2026-05-06 12:48 | 44.17549 | 76.59407 | 30861 ft | 447 kts | 344° |
| 2026-05-06 12:48 | 44.20356 | 76.58407 | 31264 ft | 449 kts | 344° |
| 2026-05-06 12:48 | 44.23163 | 76.57405 | 31703 ft | 450 kts | 344° |
| 2026-05-06 12:49 | 44.25978 | 76.56401 | 32394 ft | 445 kts | 344° |
| 2026-05-06 12:49 | 44.28730 | 76.55419 | 32950 ft | 443 kts | 344° |
| 2026-05-06 12:49 | 44.31452 | 76.54446 | 33410 ft | 442 kts | 344° |
| 2026-05-06 12:49 | 44.34143 | 76.53368 | 33895 ft | 440 kts | 341° |
| 2026-05-06 12:50 | 44.36783 | 76.52064 | 34345 ft | 438 kts | 338° |
| 2026-05-06 12:50 | 44.39371 | 76.50630 | 34709 ft | 437 kts | 336° |
| 2026-05-06 12:50 | 44.42011 | 76.49084 | 35071 ft | 435 kts | 336° |
| 2026-05-06 12:50 | 44.44679 | 76.47488 | 35470 ft | 433 kts | 335° |
| 2026-05-06 12:51 | 44.47286 | 76.45918 | 35843 ft | 431 kts | 336° |
| 2026-05-06 12:51 | 44.49709 | 76.44461 | 36148 ft | 431 kts | 336° |
| 2026-05-06 12:51 | 44.52310 | 76.42905 | 36560 ft | 430 kts | 336° |
| 2026-05-06 12:51 | 44.54819 | 76.41411 | 36988 ft | 429 kts | 336° |
| 2026-05-06 12:52 | 44.57354 | 76.39906 | 37389 ft | 428 kts | 336° |
| 2026-05-06 12:52 | 44.59904 | 76.38397 | 37782 ft | 427 kts | 336° |
| 2026-05-06 12:52 | 44.62433 | 76.36903 | 38065 ft | 427 kts | 336° |
| 2026-05-06 12:53 | 44.67752 | 76.33762 | 38076 ft | 427 kts | 336° |
| 2026-05-06 12:53 | 44.73055 | 76.30632 | 38078 ft | 425 kts | 336° |
| 2026-05-06 12:54 | 44.78239 | 76.27565 | 38073 ft | 426 kts | 336° |
| 2026-05-06 12:54 | 44.83423 | 76.24493 | 38074 ft | 426 kts | 336° |
| 2026-05-06 12:55 | 44.88654 | 76.21388 | 38069 ft | 425 kts | 336° |
| 2026-05-06 12:55 | 44.91287 | 76.19822 | 38195 ft | 427 kts | 336° |
| 2026-05-06 12:55 | 44.93886 | 76.18276 | 38090 ft | 425 kts | 336° |
| 2026-05-06 12:56 | 44.99106 | 76.15166 | 38077 ft | 423 kts | 336° |
| 2026-05-06 12:56 | 45.04287 | 76.12071 | 38078 ft | 425 kts | 336° |
| 2026-05-06 12:57 | 45.09479 | 76.08962 | 38075 ft | 424 kts | 336° |
| 2026-05-06 12:57 | 45.14623 | 76.05877 | 38077 ft | 424 kts | 336° |
| 2026-05-06 12:58 | 45.19762 | 76.02788 | 38079 ft | 423 kts | 336° |
| 2026-05-06 12:58 | 45.24858 | 75.99721 | 38074 ft | 423 kts | 336° |
| 2026-05-06 12:59 | 45.29948 | 75.96651 | 38072 ft | 423 kts | 336° |